Time;durP1;ratioP1;P1;durP2;ratioP2;P2;SDS_P1;SDS_P2;PMS_P1;PMS_P2;Temp;Humidity;BMP_temperature;BMP_pressure;BME280_temperature;BME280_humidity;BME280_pressure;Samples;Min_cycle;Max_cycle;Signal;HPM_P1;HPM_P2
2021/08/04 00:00:52;;;;;;;3.83;2.15;;;13.10;99.90;;;;;;5061877;28;20053;-80
2021/08/04 00:03:17;;;;;;;3.70;2.67;;;13.00;99.90;;;;;;5065543;28;20025;-80
2021/08/04 00:05:43;;;;;;;3.42;2.30;;;13.00;99.90;;;;;;5064017;28;20021;-80
2021/08/04 00:08:09;;;;;;;3.53;2.67;;;12.90;99.90;;;;;;5047443;28;20489;-80
2021/08/04 00:10:35;;;;;;;2.95;2.10;;;12.90;99.90;;;;;;5052214;28;20033;-80
2021/08/04 00:13:01;;;;;;;3.17;2.75;;;12.80;99.90;;;;;;5058884;28;20083;-80
2021/08/04 00:15:26;;;;;;;3.20;2.25;;;12.80;99.90;;;;;;5028589;28;20048;-80
2021/08/04 00:17:52;;;;;;;3.38;2.38;;;12.80;99.90;;;;;;5045258;28;20401;-80
2021/08/04 00:20:18;;;;;;;4.03;2.40;;;12.80;99.90;;;;;;5027158;28;20025;-80
2021/08/04 00:22:44;;;;;;;4.45;3.13;;;12.70;99.90;;;;;;5027722;28;20025;-80
2021/08/04 00:25:10;;;;;;;4.78;2.80;;;12.70;99.90;;;;;;5060412;28;20026;-80
2021/08/04 00:27:36;;;;;;;4.57;2.90;;;12.70;99.90;;;;;;5044916;28;20025;-80
2021/08/04 00:30:04;;;;;;;3.97;2.88;;;12.70;99.90;;;;;;5047188;28;20035;-80
2021/08/04 00:32:29;;;;;;;4.05;2.58;;;12.70;99.90;;;;;;5047328;28;20017;-80
2021/08/04 00:34:55;;;;;;;3.42;2.53;;;12.60;99.90;;;;;;5064068;28;20068;-80
2021/08/04 00:37:21;;;;;;;4.38;2.92;;;12.60;99.90;;;;;;5043673;28;20014;-80
2021/08/04 00:39:47;;;;;;;4.10;2.60;;;12.60;99.90;;;;;;5027114;28;20044;-79
2021/08/04 00:42:17;;;;;;;2.88;2.45;;;12.50;99.90;;;;;;5061171;28;20029;-80
2021/08/04 00:44:43;;;;;;;4.32;2.47;;;12.50;99.90;;;;;;5045119;28;20097;-79
2021/08/04 00:47:08;;;;;;;4.50;3.65;;;12.50;99.90;;;;;;5064715;28;20025;-80
2021/08/04 00:49:34;;;;;;;4.45;2.65;;;12.50;99.90;;;;;;5036277;28;20504;-80
2021/08/04 00:52:00;;;;;;;4.15;2.92;;;12.50;99.90;;;;;;5027189;28;20033;-80
2021/08/04 00:54:25;;;;;;;3.30;2.65;;;12.50;99.90;;;;;;5040882;28;20030;-80
2021/08/04 00:56:51;;;;;;;3.90;2.72;;;12.50;99.90;;;;;;5044951;28;20033;-80
2021/08/04 00:59:17;;;;;;;4.82;2.47;;;12.40;99.90;;;;;;5058197;28;20026;-79
2021/08/04 01:02:09;;;;;;;6.10;3.40;;;12.40;99.90;;;;;;5027165;28;20068;-80
2021/08/04 01:04:55;;;;;;;4.35;3.20;;;12.40;99.90;;;;;;5057704;28;20033;-80
2021/08/04 01:07:36;;;;;;;3.65;2.38;;;12.40;99.90;;;;;;5046633;28;20024;-79
2021/08/04 01:10:12;;;;;;;4.18;2.63;;;12.40;99.90;;;;;;5043584;28;20025;-79
2021/08/04 01:12:55;;;;;;;3.55;2.40;;;12.40;99.90;;;;;;5043390;28;20026;-79
2021/08/04 01:15:24;;;;;;;6.40;2.47;;;12.40;99.90;;;;;;5046570;28;20401;-79
2021/08/04 01:17:51;;;;;;;5.03;2.75;;;12.30;99.90;;;;;;5048122;28;20057;-79
2021/08/04 01:20:23;;;;;;;4.80;3.15;;;12.30;99.90;;;;;;5065823;28;20044;-79
2021/08/04 01:23:12;;;;;;;3.25;2.28;;;12.30;99.90;;;;;;5065914;28;20092;-80
2021/08/04 01:26:29;;;;;;;3.53;2.72;;;12.30;99.90;;;;;;5034062;28;20029;-80
2021/08/04 01:28:58;;;;;;;6.03;2.47;;;12.20;99.90;;;;;;5030350;28;20459;-80
2021/08/04 01:31:30;;;;;;;4.22;2.33;;;12.20;99.90;;;;;;5063390;28;20545;-80
2021/08/04 01:33:58;;;;;;;4.25;2.67;;;12.20;99.90;;;;;;5065111;28;20036;-79
2021/08/04 01:36:25;;;;;;;3.40;2.53;;;12.20;99.90;;;;;;5066949;28;20040;-79
2021/08/04 01:38:53;;;;;;;5.10;3.47;;;12.20;99.90;;;;;;5050257;28;20043;-79
2021/08/04 01:41:20;;;;;;;5.05;2.58;;;12.20;99.90;;;;;;5050432;28;20033;-79
2021/08/04 01:43:50;;;;;;;3.88;2.28;;;12.20;99.90;;;;;;5047021;28;20017;-79
2021/08/04 01:46:17;;;;;;;4.57;3.00;;;12.10;99.90;;;;;;5049195;28;20111;-79
2021/08/04 01:48:43;;;;;;;4.80;3.50;;;12.10;99.90;;;;;;5049866;28;20021;-80
2021/08/04 01:51:11;;;;;;;5.82;3.38;;;12.10;99.90;;;;;;5047019;28;20049;-80
2021/08/04 01:53:39;;;;;;;3.97;3.13;;;12.10;99.90;;;;;;5063527;28;20082;-80
2021/08/04 01:56:04;;;;;;;4.70;3.65;;;12.10;99.90;;;;;;5030063;28;20061;-80
2021/08/04 01:58:32;;;;;;;5.35;2.80;;;12.10;99.90;;;;;;5030089;28;20477;-80
2021/08/04 02:00:57;;;;;;;3.65;3.00;;;12.00;99.90;;;;;;5030267;28;20036;-80
2021/08/04 02:03:23;;;;;;;4.82;3.53;;;12.00;99.90;;;;;;5032925;28;20020;-80
2021/08/04 02:05:51;;;;;;;6.22;4.05;;;12.00;99.90;;;;;;5030179;28;20028;-80
2021/08/04 02:08:39;;;;;;;4.82;3.88;;;12.00;99.90;;;;;;5029649;28;20029;-80
2021/08/04 02:11:22;;;;;;;5.45;3.78;;;12.00;99.90;;;;;;5065583;28;20043;-79
2021/08/04 02:14:04;;;;;;;6.57;3.58;;;11.90;99.90;;;;;;5048727;28;20053;-80
2021/08/04 02:17:09;;;;;;;5.10;3.42;;;11.90;99.90;;;;;;5066244;28;20047;-79
2021/08/04 02:19:59;;;;;;;7.05;2.85;;;11.90;99.90;;;;;;5065901;28;20063;-79
2021/08/04 02:22:43;;;;;;;5.40;3.20;;;11.90;99.90;;;;;;5049407;28;20028;-79
2021/08/04 02:25:37;;;;;;;3.53;3.05;;;11.90;99.90;;;;;;5067602;28;20059;-79
2021/08/04 02:28:06;;;;;;;4.32;3.17;;;11.90;99.90;;;;;;5049098;28;20055;-79
2021/08/04 02:30:33;;;;;;;4.90;2.63;;;11.90;99.90;;;;;;5066083;28;20036;-79
2021/08/04 02:33:00;;;;;;;4.95;3.25;;;11.80;99.90;;;;;;5051757;28;20037;-79
2021/08/04 02:35:26;;;;;;;4.20;2.75;;;11.80;99.90;;;;;;5061680;28;20044;-78
2021/08/04 02:37:52;;;;;;;4.63;3.17;;;11.70;99.90;;;;;;5066993;28;20029;-78
2021/08/04 02:40:18;;;;;;;4.38;3.35;;;11.60;99.90;;;;;;5065917;28;20029;-79
2021/08/04 02:42:45;;;;;;;6.28;3.53;;;11.60;99.90;;;;;;5065910;28;20029;-78
2021/08/04 02:45:11;;;;;;;4.85;3.38;;;11.60;99.90;;;;;;5049131;28;20033;-79
2021/08/04 02:47:38;;;;;;;8.10;3.60;;;11.50;99.90;;;;;;5048560;28;20021;-79
2021/08/04 02:50:06;;;;;;;4.68;2.92;;;11.50;99.90;;;;;;5043684;28;20040;-80
2021/08/04 02:52:33;;;;;;;5.25;2.45;;;11.50;99.90;;;;;;5046581;28;20029;-79
2021/08/04 02:54:59;;;;;;;4.40;2.50;;;11.50;99.90;;;;;;5045479;28;20045;-80
2021/08/04 02:57:26;;;;;;;4.38;2.88;;;11.50;99.90;;;;;;5062064;28;20033;-78
2021/08/04 02:59:51;;;;;;;5.97;3.47;;;11.50;99.90;;;;;;5059571;28;20053;-79
2021/08/04 03:02:17;;;;;;;3.95;3.10;;;11.50;99.90;;;;;;5047008;28;20032;-80
2021/08/04 03:04:43;;;;;;;6.28;2.90;;;11.40;99.90;;;;;;5059553;28;20025;-79
2021/08/04 03:07:09;;;;;;;6.57;3.05;;;11.40;99.90;;;;;;5046825;28;20037;-79
2021/08/04 03:09:34;;;;;;;4.88;2.95;;;11.40;99.90;;;;;;5046509;28;20029;-79
2021/08/04 03:12:00;;;;;;;4.72;3.20;;;11.40;99.90;;;;;;5029106;28;20037;-79
2021/08/04 03:14:28;;;;;;;8.45;3.17;;;11.40;99.90;;;;;;5061703;28;20071;-78
2021/08/04 03:16:54;;;;;;;7.95;4.65;;;11.50;99.90;;;;;;5064421;28;20275;-79
2021/08/04 03:19:20;;;;;;;6.63;4.38;;;11.50;99.90;;;;;;5048560;28;20262;-79
2021/08/04 03:21:46;;;;;;;5.47;3.80;;;11.50;99.90;;;;;;5048797;28;20520;-80
2021/08/04 03:24:12;;;;;;;5.65;4.18;;;11.50;99.90;;;;;;5048586;28;20104;-79
2021/08/04 03:26:38;;;;;;;5.07;4.15;;;11.50;99.90;;;;;;5048531;28;20083;-79
2021/08/04 03:29:03;;;;;;;6.25;4.15;;;11.50;99.90;;;;;;5064944;28;20025;-79
2021/08/04 03:31:29;;;;;;;9.02;5.18;;;11.50;99.90;;;;;;5047737;28;20394;-79
2021/08/04 03:33:55;;;;;;;7.00;4.95;;;11.50;99.90;;;;;;5059135;28;20053;-80
2021/08/04 03:36:22;;;;;;;7.18;4.90;;;11.50;99.90;;;;;;5061656;28;20556;-79
2021/08/04 03:38:48;;;;;;;6.65;5.13;;;11.50;99.90;;;;;;5045328;28;20017;-79
2021/08/04 03:41:13;;;;;;;8.00;5.10;;;11.50;99.90;;;;;;5060980;28;20022;-79
2021/08/04 03:43:39;;;;;;;7.70;5.10;;;11.50;99.90;;;;;;5046189;28;20322;-79
2021/08/04 03:46:04;;;;;;;7.22;4.82;;;11.50;99.90;;;;;;5061798;28;20096;-79
2021/08/04 03:48:30;;;;;;;7.47;5.50;;;11.40;99.90;;;;;;5032288;23;20218;-79
2021/08/04 03:50:55;;;;;;;7.55;5.28;;;11.40;99.90;;;;;;4970577;28;20247;-79
2021/08/04 03:53:21;;;;;;;7.07;4.47;;;11.40;99.90;;;;;;4986713;28;20041;-79
2021/08/04 03:55:47;;;;;;;7.80;5.13;;;11.40;99.90;;;;;;5002479;28;20042;-79
2021/08/04 03:58:12;;;;;;;5.63;4.63;;;11.40;99.90;;;;;;5019100;28;20086;-78
2021/08/04 04:00:38;;;;;;;6.03;4.88;;;11.40;99.90;;;;;;5002863;28;20039;-78
2021/08/04 04:03:03;;;;;;;6.75;4.95;;;11.30;99.90;;;;;;4987828;28;20046;-79
2021/08/04 04:05:29;;;;;;;9.10;5.82;;;11.30;99.90;;;;;;4986453;28;20034;-79
2021/08/04 04:07:55;;;;;;;7.38;5.15;;;11.30;99.90;;;;;;4986464;28;20074;-79
2021/08/04 04:10:22;;;;;;;6.95;5.50;;;11.30;99.90;;;;;;4987287;28;20030;-79
2021/08/04 04:12:47;;;;;;;7.22;5.07;;;11.30;99.90;;;;;;4986427;28;20027;-78
2021/08/04 04:15:13;;;;;;;6.70;5.28;;;11.20;99.90;;;;;;4986208;28;20071;-79
2021/08/04 04:17:38;;;;;;;7.90;5.22;;;11.20;99.90;;;;;;4987148;28;20058;-78
2021/08/04 04:20:04;;;;;;;5.68;4.97;;;11.30;99.90;;;;;;4985501;28;20110;-79
2021/08/04 04:22:30;;;;;;;8.65;5.38;;;11.20;99.90;;;;;;4985152;28;20033;-79
2021/08/04 04:24:56;;;;;;;7.35;5.53;;;11.20;99.90;;;;;;4986493;28;20102;-78
2021/08/04 04:27:21;;;;;;;8.30;5.50;;;11.20;99.90;;;;;;4985053;28;20054;-79
2021/08/04 04:29:47;;;;;;;7.55;5.20;;;11.20;99.90;;;;;;4986284;28;20031;-78
2021/08/04 04:32:12;;;;;;;6.85;5.53;;;11.20;99.90;;;;;;4985341;28;20038;-78
2021/08/04 04:34:38;;;;;;;7.95;5.53;;;11.20;99.90;;;;;;4984890;28;20066;-79
2021/08/04 04:37:04;;;;;;;8.88;5.72;;;11.20;99.90;;;;;;4985058;28;20118;-78
2021/08/04 04:39:29;;;;;;;7.45;5.57;;;11.40;99.90;;;;;;4984832;28;20037;-79
2021/08/04 04:41:55;;;;;;;7.78;5.32;;;11.40;99.90;;;;;;4986139;28;20058;-79
2021/08/04 04:44:20;;;;;;;7.13;5.00;;;11.40;99.90;;;;;;4986285;28;20046;-79
2021/08/04 04:46:46;;;;;;;7.30;5.30;;;11.40;99.90;;;;;;5000974;28;20050;-79
2021/08/04 04:49:12;;;;;;;6.68;5.05;;;11.40;99.90;;;;;;4985631;28;20442;-79
2021/08/04 04:51:37;;;;;;;7.43;5.55;;;11.40;99.90;;;;;;4985855;28;20039;-79
2021/08/04 04:54:03;;;;;;;8.40;4.88;;;11.50;99.90;;;;;;4984686;28;20061;-79
2021/08/04 04:56:29;;;;;;;6.80;5.50;;;11.50;99.90;;;;;;4984600;28;20122;-80
2021/08/04 04:58:54;;;;;;;6.93;4.95;;;11.60;99.90;;;;;;4985749;28;20034;-78
2021/08/04 05:01:21;;;;;;;7.68;4.78;;;11.60;99.90;;;;;;4985578;28;20379;-78
2021/08/04 05:03:46;;;;;;;7.20;5.45;;;11.60;99.90;;;;;;4984313;28;20295;-79
2021/08/04 05:06:12;;;;;;;7.22;5.53;;;11.70;99.90;;;;;;4981472;28;20273;-78
2021/08/04 05:08:38;;;;;;;7.28;5.00;;;11.80;99.90;;;;;;4985617;28;20054;-78
2021/08/04 05:11:03;;;;;;;7.25;4.68;;;11.80;99.90;;;;;;4985350;28;20049;-77
2021/08/04 05:13:29;;;;;;;7.45;4.68;;;11.90;99.90;;;;;;4985966;28;20031;-77
2021/08/04 05:15:55;;;;;;;6.43;5.35;;;11.90;99.90;;;;;;4985498;28;20045;-78
2021/08/04 05:18:21;;;;;;;8.23;5.30;;;12.00;99.90;;;;;;4985407;28;20063;-78
2021/08/04 05:20:47;;;;;;;8.20;6.32;;;12.00;99.90;;;;;;4984029;28;20050;-78
2021/08/04 05:23:12;;;;;;;8.38;6.88;;;12.10;99.90;;;;;;4984173;28;20057;-78
2021/08/04 05:25:38;;;;;;;8.95;7.38;;;12.20;99.90;;;;;;4945933;28;20051;-78
2021/08/04 05:28:05;;;;;;;7.60;6.43;;;12.20;99.90;;;;;;4967800;28;20034;-78
2021/08/04 05:30:30;;;;;;;7.60;5.95;;;12.20;99.90;;;;;;4985278;28;20042;-78
2021/08/04 05:32:56;;;;;;;8.88;6.82;;;12.30;99.90;;;;;;4984834;28;20031;-77
2021/08/04 05:35:21;;;;;;;7.88;5.75;;;12.40;99.90;;;;;;4999581;28;20035;-78
2021/08/04 05:37:47;;;;;;;9.40;6.78;;;12.40;99.90;;;;;;4985434;28;20073;-78
2021/08/04 05:40:13;;;;;;;9.52;6.00;;;12.50;99.90;;;;;;4985424;28;20500;-78
2021/08/04 05:42:39;;;;;;;6.63;4.75;;;12.60;99.90;;;;;;4985341;28;20035;-78
2021/08/04 05:45:05;;;;;;;6.82;5.35;;;12.70;99.90;;;;;;4985534;28;20034;-78
2021/08/04 05:47:31;;;;;;;6.93;5.40;;;12.80;99.90;;;;;;4984177;28;20031;-77
2021/08/04 05:49:57;;;;;;;7.82;5.45;;;12.80;99.90;;;;;;4985538;28;20038;-77
2021/08/04 05:52:22;;;;;;;8.82;5.90;;;12.90;99.90;;;;;;4984779;28;20625;-77
2021/08/04 05:54:48;;;;;;;9.85;6.22;;;13.00;99.90;;;;;;4984175;28;20031;-77
2021/08/04 05:57:14;;;;;;;9.27;6.35;;;13.00;99.90;;;;;;4985272;28;20035;-77
2021/08/04 05:59:40;;;;;;;7.85;6.32;;;13.10;99.90;;;;;;4984013;28;20089;-77
2021/08/04 06:02:06;;;;;;;8.40;6.07;;;13.20;99.90;;;;;;4986058;28;20045;-80
2021/08/04 06:04:32;;;;;;;9.43;6.43;;;13.30;99.90;;;;;;5004680;28;20023;-96
2021/08/04 06:06:57;;;;;;;8.45;6.40;;;13.50;99.90;;;;;;5003744;28;20089;-80
2021/08/04 06:09:23;;;;;;;7.65;5.05;;;13.60;99.90;;;;;;4988133;28;20102;-79
2021/08/04 06:11:48;;;;;;;9.43;6.20;;;13.70;99.90;;;;;;4988560;28;20035;-79
2021/08/04 06:14:14;;;;;;;9.65;6.07;;;13.90;99.90;;;;;;4986785;28;20050;-79
2021/08/04 06:16:40;;;;;;;9.90;7.22;;;14.00;99.90;;;;;;4976067;28;20423;-79
2021/08/04 06:19:05;;;;;;;9.13;6.30;;;14.10;99.90;;;;;;4967705;28;20452;-78
2021/08/04 06:21:31;;;;;;;7.05;5.85;;;14.30;99.90;;;;;;4967632;29;20050;-79
2021/08/04 06:23:57;;;;;;;5.50;3.60;;;14.40;99.90;;;;;;4967630;29;20035;-79
2021/08/04 06:26:22;;;;;;;5.78;4.55;;;14.60;99.90;;;;;;4967907;29;20032;-79
2021/08/04 06:28:49;;;;;;;5.20;4.07;;;14.70;99.90;;;;;;4967577;29;20491;-79
2021/08/04 06:31:15;;;;;;;5.75;3.83;;;14.90;99.90;;;;;;4967747;28;20077;-78
2021/08/04 06:33:40;;;;;;;4.38;3.65;;;15.00;99.90;;;;;;4969106;28;20031;-78
2021/08/04 06:36:06;;;;;;;5.22;3.33;;;15.20;99.90;;;;;;4968928;28;20075;-79
2021/08/04 06:38:32;;;;;;;5.22;3.15;;;15.30;99.90;;;;;;4967357;29;20071;-79
2021/08/04 06:40:58;;;;;;;4.50;2.97;;;15.60;99.90;;;;;;4967681;28;20046;-79
2021/08/04 06:43:24;;;;;;;4.47;3.20;;;15.80;99.90;;;;;;4968813;29;20042;-79
2021/08/04 06:45:49;;;;;;;3.50;2.88;;;16.00;99.90;;;;;;4967727;28;20031;-79
2021/08/04 06:48:15;;;;;;;4.55;2.47;;;16.10;99.90;;;;;;5002799;28;20053;-79
2021/08/04 06:50:40;;;;;;;3.83;3.10;;;16.30;99.90;;;;;;4986729;28;20053;-79
2021/08/04 06:53:06;;;;;;;3.08;2.25;;;16.40;99.90;;;;;;4988122;28;20225;-79
2021/08/04 06:55:32;;;;;;;6.90;3.45;;;16.60;99.90;;;;;;4986822;28;20038;-79
2021/08/04 06:57:57;;;;;;;4.85;2.95;;;16.60;99.90;;;;;;4970214;28;20030;-79
2021/08/04 07:00:23;;;;;;;4.63;2.80;;;16.60;99.90;;;;;;4970443;28;20042;-79
2021/08/04 07:02:51;;;;;;;4.93;3.13;;;16.90;99.90;;;;;;4986542;28;20407;-79
2021/08/04 07:05:17;;;;;;;3.75;2.47;;;17.00;99.90;;;;;;4970538;28;20578;-79
2021/08/04 07:07:44;;;;;;;4.68;2.72;;;17.10;99.90;;;;;;4970132;28;20042;-79
2021/08/04 07:10:12;;;;;;;3.03;2.47;;;17.30;99.90;;;;;;4970329;28;20034;-79
2021/08/04 07:12:37;;;;;;;3.08;2.38;;;17.30;99.90;;;;;;4970325;28;20050;-79
2021/08/04 07:15:03;;;;;;;3.67;2.42;;;17.40;99.90;;;;;;4987551;28;20043;-80
2021/08/04 07:17:29;;;;;;;3.65;2.60;;;17.50;99.90;;;;;;4986054;28;20451;-79
2021/08/04 07:19:55;;;;;;;3.30;2.10;;;17.60;99.90;;;;;;4986562;28;20050;-79
2021/08/04 07:22:20;;;;;;;3.38;2.70;;;17.70;99.90;;;;;;4987037;28;20035;-79
2021/08/04 07:24:46;;;;;;;4.65;3.08;;;17.80;99.90;;;;;;5003126;28;20048;-80
2021/08/04 07:27:11;;;;;;;5.93;3.58;;;17.40;99.90;;;;;;4986193;28;20121;-79
2021/08/04 07:29:37;;;;;;;3.03;2.47;;;17.40;99.90;;;;;;4986126;28;20035;-80
2021/08/04 07:32:03;;;;;;;4.80;2.78;;;17.60;99.90;;;;;;4986211;28;20102;-80
2021/08/04 07:34:29;;;;;;;3.65;2.83;;;17.70;99.90;;;;;;4969937;28;20031;-79
2021/08/04 07:36:54;;;;;;;1.95;1.17;;;17.90;99.90;;;;;;4987418;28;20030;-79
2021/08/04 07:39:21;;;;;;;4.43;2.67;;;17.90;99.90;;;;;;4987113;28;20022;-80
2021/08/04 07:41:47;;;;;;;3.42;2.55;;;18.00;99.90;;;;;;4985996;28;20062;-79
2021/08/04 07:44:13;;;;;;;2.67;1.52;;;18.30;99.90;;;;;;4985855;28;20089;-80
2021/08/04 07:46:58;;;;;;;4.03;1.58;;;18.50;99.90;;;;;;4985643;28;20034;-79
2021/08/04 07:49:24;;;;;;;2.53;2.30;;;18.70;99.90;;;;;;4948645;29;20050;-79
2021/08/04 07:51:50;;;;;;;3.35;2.30;;;18.90;99.90;;;;;;4965169;28;20043;-79
2021/08/04 07:54:15;;;;;;;3.78;1.80;;;19.10;99.90;;;;;;4965042;29;20043;-80
2021/08/04 07:56:41;;;;;;;4.05;1.98;;;19.10;99.90;;;;;;4965174;29;20042;-79
2021/08/04 07:59:07;;;;;;;2.65;2.08;;;19.30;99.90;;;;;;4965052;29;20039;-80
2021/08/04 08:01:32;;;;;;;2.63;2.17;;;19.10;99.90;;;;;;4965095;28;20062;-80
2021/08/04 08:03:58;;;;;;;3.35;1.98;;;18.90;99.90;;;;;;4965094;29;20499;-80
2021/08/04 08:06:25;;;;;;;2.88;2.00;;;19.30;99.90;;;;;;4949220;29;20043;-80
2021/08/04 08:08:50;;;;;;;1.95;1.27;;;19.50;99.90;;;;;;4964758;29;20035;-80
2021/08/04 08:11:16;;;;;;;2.72;2.03;;;19.60;99.90;;;;;;4965009;29;20045;-80
2021/08/04 08:13:41;;;;;;;3.03;1.77;;;19.50;99.90;;;;;;4965058;28;20055;-80
2021/08/04 08:16:07;;;;;;;2.60;1.38;;;19.50;99.90;;;;;;4954879;28;20042;-79
2021/08/04 08:18:33;;;;;;;2.25;1.50;;;19.50;99.90;;;;;;4984003;28;20061;-80
2021/08/04 08:20:58;;;;;;;2.83;1.95;;;19.50;99.90;;;;;;4968093;28;20150;-79
2021/08/04 08:23:24;;;;;;;4.10;2.50;;;19.50;99.90;;;;;;4951841;28;20034;-80
2021/08/04 08:25:50;;;;;;;3.25;2.13;;;19.50;99.90;;;;;;4969506;28;20101;-79
2021/08/04 08:28:16;;;;;;;3.75;2.05;;;19.60;99.90;;;;;;4985041;28;20466;-80
2021/08/04 08:30:42;;;;;;;2.10;1.67;;;19.70;99.90;;;;;;4984974;28;20062;-80
2021/08/04 08:33:08;;;;;;;3.00;1.42;;;20.10;99.90;;;;;;4985174;28;20042;-80
2021/08/04 08:35:34;;;;;;;2.42;1.50;;;20.40;99.90;;;;;;4986284;28;20035;-80
2021/08/04 08:38:00;;;;;;;3.42;1.83;;;20.30;99.90;;;;;;4985054;28;20027;-79
2021/08/04 08:40:26;;;;;;;2.92;1.17;;;20.20;99.90;;;;;;4984992;28;20039;-80
2021/08/04 08:42:53;;;;;;;4.22;2.53;;;20.20;99.90;;;;;;4986420;28;20046;-80
2021/08/04 08:45:19;;;;;;;2.47;1.33;;;19.90;99.90;;;;;;4984932;28;20054;-79
2021/08/04 08:47:46;;;;;;;3.75;2.10;;;20.20;99.90;;;;;;4985485;28;20019;-79
2021/08/04 08:50:14;;;;;;;3.38;1.55;;;20.30;99.90;;;;;;4986132;28;20026;-80
2021/08/04 08:52:40;;;;;;;2.38;1.23;;;20.10;99.90;;;;;;4984862;28;20031;-79
2021/08/04 08:55:07;;;;;;;2.00;1.00;;;20.50;99.90;;;;;;5000997;28;20046;-79
2021/08/04 08:57:33;;;;;;;2.78;1.67;;;20.70;99.90;;;;;;4968506;28;20031;-79
2021/08/04 08:59:59;;;;;;;2.30;1.23;;;20.40;99.90;;;;;;4968365;28;20047;-80
2021/08/04 09:02:26;;;;;;;3.17;0.80;;;20.90;99.90;;;;;;4986130;28;20059;-80
2021/08/04 09:05:07;;;;;;;2.17;1.25;;;21.10;99.90;;;;;;4969459;28;20031;-80
2021/08/04 09:07:39;;;;;;;1.80;1.00;;;20.90;99.90;;;;;;4984694;28;20030;-80
2021/08/04 09:10:30;;;;;;;2.55;1.35;;;21.30;99.90;;;;;;4968359;28;20054;-80
2021/08/04 09:13:01;;;;;;;2.30;1.25;;;20.90;99.90;;;;;;5000804;28;20122;-79
2021/08/04 09:15:39;;;;;;;1.52;0.60;;;20.80;99.90;;;;;;4985680;28;20115;-80
2021/08/04 09:18:11;;;;;;;4.40;1.55;;;21.60;99.90;;;;;;4984178;28;20027;-80
2021/08/04 09:20:53;;;;;;;1.60;0.70;;;21.40;99.90;;;;;;4984458;28;20197;-80
2021/08/04 09:23:21;;;;;;;1.98;0.73;;;21.70;99.90;;;;;;5000804;28;20046;-80
2021/08/04 09:26:03;;;;;;;1.27;0.60;;;21.80;99.90;;;;;;4984410;28;20047;-81
2021/08/04 09:28:30;;;;;;;1.55;0.82;;;22.10;99.90;;;;;;4968179;28;20035;-80
2021/08/04 09:31:02;;;;;;;2.50;0.98;;;21.60;99.90;;;;;;4984340;28;20039;-80
2021/08/04 09:33:36;;;;;;;1.50;0.60;;;21.60;99.90;;;;;;4984176;28;20035;-80
2021/08/04 09:36:02;;;;;;;1.33;0.50;;;22.00;99.90;;;;;;4984346;28;20519;-80
2021/08/04 09:38:28;;;;;;;1.70;0.50;;;22.40;99.90;;;;;;4987121;28;20034;-80
2021/08/04 09:41:15;;;;;;;1.38;0.57;;;22.20;99.90;;;;;;5004487;28;20031;-80
2021/08/04 09:43:45;;;;;;;1.27;0.60;;;22.30;99.90;;;;;;4988130;28;20035;-81
2021/08/04 09:46:26;;;;;;;1.05;0.50;;;22.20;99.90;;;;;;4987830;28;20030;-80
2021/08/04 09:48:52;;;;;;;1.70;0.60;;;22.20;99.90;;;;;;4981118;28;20150;-80
2021/08/04 09:51:19;;;;;;;1.45;0.60;;;22.30;99.90;;;;;;4984655;28;20427;-80
2021/08/04 09:53:51;;;;;;;3.67;0.73;;;22.50;99.90;;;;;;4968598;29;20039;-79
2021/08/04 09:56:20;;;;;;;2.33;0.75;;;22.30;99.90;;;;;;4969590;28;20106;-81
2021/08/04 09:58:51;;;;;;;2.00;0.57;;;21.90;99.90;;;;;;5000740;28;20042;-82
2021/08/04 10:01:20;;;;;;;2.25;0.60;;;22.30;99.90;;;;;;4984528;28;20325;-80
2021/08/04 10:04:01;;;;;;;3.40;0.77;;;22.20;99.90;;;;;;4968524;28;20106;-80
2021/08/04 10:06:28;;;;;;;1.25;0.60;;;22.20;99.90;;;;;;4968118;28;20515;-80
2021/08/04 10:08:54;;;;;;;1.98;0.50;;;22.50;99.90;;;;;;4968160;28;20046;-81
2021/08/04 10:11:22;;;;;;;1.23;0.40;;;22.70;99.90;;;;;;4968193;28;20472;-80
2021/08/04 10:13:48;;;;;;;2.28;0.50;;;23.10;99.90;;;;;;4984265;28;20054;-80
2021/08/04 10:16:15;;;;;;;1.58;0.60;;;22.80;99.90;;;;;;4987168;28;20499;-81
2021/08/04 10:18:41;;;;;;;1.00;0.45;;;22.70;99.90;;;;;;4987145;28;20098;-80
2021/08/04 10:21:12;;;;;;;1.65;0.40;;;22.70;99.90;;;;;;4987358;28;20102;-81
2021/08/04 10:23:39;;;;;;;2.75;0.32;;;23.10;99.90;;;;;;4987315;28;20027;-80
2021/08/04 10:26:10;;;;;;;1.48;0.40;;;23.50;99.90;;;;;;4987167;28;20027;-80
2021/08/04 10:28:36;;;;;;;2.30;0.70;;;23.90;99.90;;;;;;4987086;28;20058;-80
2021/08/04 10:31:02;;;;;;;1.85;0.70;;;23.60;99.90;;;;;;4971240;28;20038;-80
2021/08/04 10:33:30;;;;;;;1.42;0.60;;;23.30;99.90;;;;;;4987079;28;20046;-80
2021/08/04 10:36:03;;;;;;;2.17;0.40;;;23.10;99.90;;;;;;4988312;28;20047;-80
2021/08/04 10:38:29;;;;;;;1.60;0.40;;;23.40;99.90;;;;;;4986789;28;20035;-80
2021/08/04 10:41:21;;;;;;;1.60;0.50;;;23.20;99.90;;;;;;4971013;28;20033;-81
2021/08/04 10:43:55;;;;;;;1.15;0.40;;;23.00;99.90;;;;;;4986804;28;20038;-80
2021/08/04 10:46:50;;;;;;;1.00;0.40;;;23.20;99.90;;;;;;4986745;28;20093;-81
2021/08/04 10:49:21;;;;;;;1.20;0.50;;;23.50;99.90;;;;;;4949381;29;20054;-80
2021/08/04 10:51:53;;;;;;;1.58;0.60;;;22.80;99.90;;;;;;4966049;28;20035;-80
2021/08/04 10:54:20;;;;;;;1.80;0.40;;;22.90;99.90;;;;;;4966221;28;20179;-80
2021/08/04 10:56:45;;;;;;;1.80;0.40;;;23.00;99.90;;;;;;4950256;29;20047;-80
2021/08/04 10:59:11;;;;;;;1.13;0.40;;;23.20;99.90;;;;;;4965980;28;20054;-81
2021/08/04 11:01:38;;;;;;;0.80;0.40;;;23.20;99.90;;;;;;4966058;28;20098;-80
2021/08/04 11:04:06;;;;;;;2.20;0.40;;;23.40;99.90;;;;;;4966046;28;20102;-80
2021/08/04 11:06:32;;;;;;;1.30;0.40;;;23.90;99.90;;;;;;4965979;28;20174;-80
2021/08/04 11:09:12;;;;;;;0.98;0.40;;;24.10;99.90;;;;;;4965913;29;20059;-80
2021/08/04 11:12:00;;;;;;;2.67;0.57;;;24.00;99.90;;;;;;4965838;28;20051;-80
2021/08/04 11:14:49;;;;;;;0.90;0.40;;;23.90;99.90;;;;;;4949935;29;20041;-80
2021/08/04 11:17:21;;;;;;;0.80;0.40;;;23.80;99.90;;;;;;4964904;28;20043;-80
2021/08/04 11:20:09;;;;;;;1.05;0.40;;;23.60;99.90;;;;;;4968752;28;20043;-80
2021/08/04 11:22:34;;;;;;;1.08;0.40;;;23.90;99.90;;;;;;4969355;28;20042;-80
2021/08/04 11:25:23;;;;;;;1.08;0.50;;;24.20;99.90;;;;;;4971047;28;20058;-80
2021/08/04 11:27:48;;;;;;;1.00;0.40;;;24.20;99.90;;;;;;5002577;28;20062;-79
2021/08/04 11:30:35;;;;;;;2.03;0.30;;;24.90;99.90;;;;;;4986216;28;20031;-81
2021/08/04 11:33:24;;;;;;;1.27;0.38;;;24.90;99.90;;;;;;5011809;28;20062;-81
2021/08/04 11:36:10;;;;;;;0.90;0.40;;;24.90;99.90;;;;;;5002282;28;20093;-80
2021/08/04 11:38:42;;;;;;;1.25;0.40;;;24.80;99.90;;;;;;4979800;28;20122;-80
2021/08/04 11:41:15;;;;;;;1.48;0.40;;;25.10;99.90;;;;;;4987470;28;20031;-80
2021/08/04 11:43:40;;;;;;;1.70;0.43;;;25.00;99.90;;;;;;5002160;28;20038;-80
2021/08/04 11:46:06;;;;;;;1.65;0.40;;;24.60;99.90;;;;;;4987276;28;20197;-81
2021/08/04 11:48:48;;;;;;;1.38;0.40;;;24.80;99.90;;;;;;4986651;28;20047;-80
2021/08/04 11:51:14;;;;;;;1.20;0.40;;;25.30;99.90;;;;;;4985716;28;20098;-80
2021/08/04 11:53:43;;;;;;;0.52;0.28;;;25.30;99.90;;;;;;4985636;28;20038;-80
2021/08/04 11:56:09;;;;;;;0.70;0.30;;;25.30;99.90;;;;;;5001840;28;20049;-80
2021/08/04 11:58:34;;;;;;;1.23;0.40;;;25.20;99.90;;;;;;5001559;28;20026;-80
2021/08/04 12:01:19;;;;;;;0.80;0.20;;;25.00;99.90;;;;;;4984812;28;20442;-80
2021/08/04 12:03:45;;;;;;;0.70;0.30;;;25.30;99.90;;;;;;5001605;28;20066;-80
2021/08/04 12:06:18;;;;;;;0.60;0.30;;;25.30;99.90;;;;;;5017911;28;20038;-80
2021/08/04 12:08:44;;;;;;;0.77;0.30;;;25.20;99.90;;;;;;4969204;28;20035;-81
2021/08/04 12:11:10;;;;;;;1.25;0.40;;;25.30;99.90;;;;;;4969349;28;20065;-80
2021/08/04 12:13:36;;;;;;;1.20;0.30;;;25.30;99.90;;;;;;4969183;28;20023;-80
2021/08/04 12:16:02;;;;;;;1.48;0.30;;;25.30;99.90;;;;;;4985322;28;20487;-80
2021/08/04 12:18:28;;;;;;;2.08;0.20;;;25.30;99.90;;;;;;4986149;28;20033;-80
2021/08/04 12:20:54;;;;;;;1.02;0.30;;;25.00;99.90;;;;;;5001380;28;20121;-80
2021/08/04 12:23:23;;;;;;;0.80;0.30;;;25.10;99.90;;;;;;4985095;28;20027;-80
2021/08/04 12:25:58;;;;;;;1.10;0.30;;;25.30;99.90;;;;;;4968899;28;20058;-80
2021/08/04 12:28:31;;;;;;;0.60;0.30;;;25.30;99.90;;;;;;4985014;28;20034;-80
2021/08/04 12:30:58;;;;;;;0.40;0.13;;;25.50;99.90;;;;;;5001430;28;20502;-80
2021/08/04 12:33:26;;;;;;;0.52;0.20;;;25.30;99.90;;;;;;4984971;28;20062;-80
2021/08/04 12:36:02;;;;;;;1.27;0.50;;;25.20;99.90;;;;;;5001097;28;20101;-80
2021/08/04 12:38:30;;;;;;;0.60;0.20;;;25.10;99.90;;;;;;4986316;28;20034;-80
2021/08/04 12:40:57;;;;;;;0.70;0.20;;;25.20;99.90;;;;;;4986274;28;20387;-80
2021/08/04 12:43:28;;;;;;;0.73;0.25;;;25.20;99.90;;;;;;4986121;28;20271;-80
2021/08/04 12:45:56;;;;;;;1.00;0.30;;;25.10;99.90;;;;;;4984870;28;20030;-80
2021/08/04 12:48:40;;;;;;;1.50;0.35;;;25.00;99.90;;;;;;4984366;28;20042;-83
2021/08/04 12:51:11;;;;;;;2.10;0.30;;;25.00;99.90;;;;;;4984868;28;20466;-83
2021/08/04 12:53:37;;;;;;;1.17;0.35;;;24.90;99.90;;;;;;4986375;28;20041;-83
2021/08/04 12:56:11;;;;;;;0.80;0.25;;;25.10;99.90;;;;;;4984902;28;20100;-89